Time;durP1;ratioP1;P1;durP2;ratioP2;P2;SDS_P1;SDS_P2;PMS_P1;PMS_P2;Temp;Humidity;BMP_temperature;BMP_pressure;BME280_temperature;BME280_humidity;BME280_pressure;Samples;Min_cycle;Max_cycle;Signal;HPM_P1;HPM_P2
2023/04/10 00:00:36;;;;;;;7.53;2.50;;;;;;;;;;5057938;28;20290;-57
2023/04/10 00:03:04;;;;;;;5.27;3.30;;;;;;;;;;5062487;28;20210;-57
2023/04/10 00:05:31;;;;;;;4.00;3.57;;;;;;;;;;5065953;28;20203;-58
2023/04/10 00:07:58;;;;;;;8.63;4.30;;;;;;;;;;5062482;28;20223;-57
2023/04/10 00:10:29;;;;;;;9.97;4.17;;;;;;;;;;5064831;28;20211;-57
2023/04/10 00:12:56;;;;;;;8.00;4.30;;;;;;;;;;5063366;28;20239;-57
2023/04/10 00:15:23;;;;;;;10.87;5.67;;;;;;;;;;5053889;28;20204;-57
2023/04/10 00:17:54;;;;;;;10.00;3.30;;;;;;;;;;5063389;28;20211;-57
2023/04/10 00:20:21;;;;;;;7.03;3.63;;;;;;;;;;5066842;28;20203;-57
2023/04/10 00:22:48;;;;;;;5.27;3.27;;;;;;;;;;5070724;28;20709;-57
2023/04/10 00:25:15;;;;;;;6.87;3.97;;;;;;;;;;5051971;28;20223;-57
2023/04/10 00:27:42;;;;;;;6.77;3.03;;;;;;;;;;5061044;28;20634;-57
2023/04/10 00:30:09;;;;;;;8.93;4.27;;;;;;;;;;5059510;28;20199;-57
2023/04/10 00:32:36;;;;;;;11.20;4.50;;;;;;;;;;5068893;28;20226;-57
2023/04/10 00:35:05;;;;;;;6.87;3.50;;;;;;;;;;5049860;28;20203;-57
2023/04/10 00:37:32;;;;;;;5.33;3.63;;;;;;;;;;5050024;28;20200;-58
2023/04/10 00:39:59;;;;;;;5.93;3.67;;;;;;;;;;5049449;28;20239;-57
2023/04/10 00:42:26;;;;;;;8.20;3.03;;;;;;;;;;5050099;28;20235;-57
2023/04/10 00:44:53;;;;;;;4.97;3.07;;;;;;;;;;5049198;28;20525;-57
2023/04/10 00:47:20;;;;;;;7.23;3.87;;;;;;;;;;5060278;28;20265;-58
2023/04/10 00:49:48;;;;;;;11.40;4.13;;;;;;;;;;5067460;28;20786;-57
2023/04/10 00:52:16;;;;;;;7.20;4.40;;;;;;;;;;5056745;28;20214;-57
2023/04/10 00:54:43;;;;;;;6.80;3.97;;;;;;;;;;5053045;28;20211;-57
2023/04/10 00:57:10;;;;;;;8.03;3.10;;;;;;;;;;5065585;28;20839;-58
2023/04/10 00:59:37;;;;;;;4.23;2.60;;;;;;;;;;5055185;28;20211;-57
2023/04/10 01:02:04;;;;;;;5.17;2.90;;;;;;;;;;5054189;28;20264;-57
2023/04/10 01:04:32;;;;;;;2.97;2.60;;;;;;;;;;5056251;28;20276;-57
2023/04/10 01:07:05;;;;;;;3.83;2.47;;;;;;;;;;5057692;28;20673;-57
2023/04/10 01:09:38;;;;;;;4.57;2.50;;;;;;;;;;5055131;28;20226;-57
2023/04/10 01:12:09;;;;;;;5.13;2.60;;;;;;;;;;5055047;28;20211;-58
2023/04/10 01:14:43;;;;;;;8.93;3.73;;;;;;;;;;5050975;28;20234;-57
2023/04/10 01:17:13;;;;;;;7.27;4.23;;;;;;;;;;5060016;28;20242;-57
2023/04/10 01:19:59;;;;;;;5.33;2.77;;;;;;;;;;5067792;28;20210;-58
2023/04/10 01:22:29;;;;;;;6.50;3.77;;;;;;;;;;5055156;28;20227;-57
2023/04/10 01:25:02;;;;;;;13.97;6.83;;;;;;;;;;5052676;28;20303;-57
2023/04/10 01:27:37;;;;;;;14.10;5.23;;;;;;;;;;5050177;28;20297;-58
2023/04/10 01:30:07;;;;;;;18.63;5.90;;;;;;;;;;5065314;28;20210;-58
2023/04/10 01:32:35;;;;;;;9.47;4.40;;;;;;;;;;5053916;28;20211;-58
2023/04/10 01:35:05;;;;;;;6.17;3.70;;;;;;;;;;5050222;28;20302;-57
2023/04/10 01:37:33;;;;;;;5.50;3.70;;;;;;;;;;5057249;28;20203;-58
2023/04/10 01:40:01;;;;;;;3.27;2.23;;;;;;;;;;5057908;28;20244;-57
2023/04/10 01:42:29;;;;;;;7.83;4.13;;;;;;;;;;5063826;28;20294;-57
2023/04/10 01:44:57;;;;;;;8.80;4.63;;;;;;;;;;5057021;28;20265;-57
2023/04/10 01:47:26;;;;;;;8.07;3.70;;;;;;;;;;5058053;28;20203;-57
2023/04/10 01:49:54;;;;;;;8.70;3.77;;;;;;;;;;5061531;28;20195;-57
2023/04/10 01:52:21;;;;;;;2.77;2.20;;;;;;;;;;5063252;28;20479;-57
2023/04/10 01:54:49;;;;;;;2.50;2.30;;;;;;;;;;5058679;28;20226;-57
2023/04/10 01:57:16;;;;;;;2.20;2.10;;;;;;;;;;5051817;28;20202;-57
2023/04/10 01:59:44;;;;;;;2.47;2.13;;;;;;;;;;5058130;28;20538;-57
2023/04/10 02:02:11;;;;;;;2.33;2.23;;;;;;;;;;5048823;28;20702;-57
2023/04/10 02:04:40;;;;;;;3.23;2.47;;;;;;;;;;5051830;28;20256;-57
2023/04/10 02:07:09;;;;;;;2.93;2.40;;;;;;;;;;5058663;28;20214;-57
2023/04/10 02:09:41;;;;;;;6.83;3.70;;;;;;;;;;5067448;28;20851;-57
2023/04/10 02:12:10;;;;;;;2.67;2.37;;;;;;;;;;5066997;28;20247;-57
2023/04/10 02:14:39;;;;;;;2.13;1.93;;;;;;;;;;5061464;28;20371;-57
2023/04/10 02:17:06;;;;;;;2.53;2.33;;;;;;;;;;5067678;28;20262;-57
2023/04/10 02:19:34;;;;;;;3.13;2.20;;;;;;;;;;5060634;28;20204;-57
2023/04/10 02:22:02;;;;;;;2.67;2.23;;;;;;;;;;5057891;28;20229;-57
2023/04/10 02:24:29;;;;;;;2.70;2.50;;;;;;;;;;5055991;28;20204;-57
2023/04/10 02:26:56;;;;;;;4.17;2.90;;;;;;;;;;5052097;28;20205;-57
2023/04/10 02:29:23;;;;;;;3.10;2.83;;;;;;;;;;5062064;28;20222;-57
2023/04/10 02:31:51;;;;;;;2.83;2.63;;;;;;;;;;5050988;28;20222;-57
2023/04/10 02:34:18;;;;;;;2.63;2.43;;;;;;;;;;5064644;28;20201;-57
2023/04/10 02:36:45;;;;;;;2.80;2.50;;;;;;;;;;5055478;28;20560;-57
2023/04/10 02:39:13;;;;;;;2.70;2.47;;;;;;;;;;5053236;28;20229;-57
2023/04/10 02:41:40;;;;;;;2.53;2.33;;;;;;;;;;5062809;28;20259;-57
2023/04/10 02:44:07;;;;;;;3.00;2.70;;;;;;;;;;5048450;28;20667;-57
2023/04/10 02:46:34;;;;;;;5.03;3.17;;;;;;;;;;5058775;28;20665;-57
2023/04/10 02:49:01;;;;;;;2.30;2.00;;;;;;;;;;5063689;28;20280;-57
2023/04/10 02:51:28;;;;;;;3.20;2.50;;;;;;;;;;5065167;28;20205;-57
2023/04/10 02:53:55;;;;;;;3.33;2.17;;;;;;;;;;5067884;28;20213;-57
2023/04/10 02:56:24;;;;;;;4.63;3.00;;;;;;;;;;5054027;28;20200;-57
2023/04/10 02:58:51;;;;;;;2.70;2.50;;;;;;;;;;5058921;28;20207;-57
2023/04/10 03:01:18;;;;;;;6.27;3.40;;;;;;;;;;5055212;28;20210;-57
2023/04/10 03:03:45;;;;;;;2.33;2.13;;;;;;;;;;5067338;28;20226;-57
2023/04/10 03:06:12;;;;;;;4.40;2.70;;;;;;;;;;5053709;28;20199;-57
2023/04/10 03:08:39;;;;;;;4.90;3.43;;;;;;;;;;5064482;28;20218;-57
2023/04/10 03:11:08;;;;;;;3.53;2.43;;;;;;;;;;5061061;28;20213;-57
2023/04/10 03:13:36;;;;;;;3.03;2.47;;;;;;;;;;5059265;28;20296;-57
2023/04/10 03:16:03;;;;;;;2.50;2.20;;;;;;;;;;5057094;28;20201;-57
2023/04/10 03:18:33;;;;;;;4.00;2.67;;;;;;;;;;5067840;28;20202;-57
2023/04/10 03:21:00;;;;;;;5.17;2.63;;;;;;;;;;5060608;28;20302;-57
2023/04/10 03:23:28;;;;;;;3.87;2.50;;;;;;;;;;5056385;28;20235;-57
2023/04/10 03:25:55;;;;;;;3.67;2.27;;;;;;;;;;5058022;28;20915;-57
2023/04/10 03:28:22;;;;;;;2.97;2.70;;;;;;;;;;5058150;28;20848;-57
2023/04/10 03:30:50;;;;;;;3.20;2.90;;;;;;;;;;5067459;28;20264;-57
2023/04/10 03:33:17;;;;;;;2.73;2.53;;;;;;;;;;5063342;28;20256;-57
2023/04/10 03:35:46;;;;;;;3.67;2.83;;;;;;;;;;5070175;28;20205;-57
2023/04/10 03:38:13;;;;;;;5.40;3.00;;;;;;;;;;5061481;28;20242;-57
2023/04/10 03:40:40;;;;;;;5.70;4.13;;;;;;;;;;5064872;28;20213;-57
2023/04/10 03:43:07;;;;;;;6.63;4.70;;;;;;;;;;5060513;28;20213;-57
2023/04/10 03:45:34;;;;;;;6.57;4.37;;;;;;;;;;5051497;28;20217;-57
2023/04/10 03:48:02;;;;;;;14.37;7.67;;;;;;;;;;5062282;28;20270;-57
2023/04/10 03:50:29;;;;;;;18.80;8.63;;;;;;;;;;5057770;28;20280;-57
2023/04/10 03:52:57;;;;;;;12.93;7.50;;;;;;;;;;5061657;28;20300;-57
2023/04/10 03:55:24;;;;;;;8.87;5.60;;;;;;;;;;5070990;28;20659;-57
2023/04/10 03:57:51;;;;;;;7.87;5.63;;;;;;;;;;5059261;28;20546;-57
2023/04/10 04:00:18;;;;;;;9.03;5.70;;;;;;;;;;5059318;28;20248;-57
2023/04/10 04:02:45;;;;;;;9.30;5.30;;;;;;;;;;5059885;28;20551;-57
2023/04/10 04:05:13;;;;;;;10.63;5.53;;;;;;;;;;5070582;28;20215;-57
2023/04/10 04:07:40;;;;;;;7.70;4.77;;;;;;;;;;5063459;28;20211;-57
2023/04/10 04:10:08;;;;;;;6.50;4.00;;;;;;;;;;5057349;28;20231;-57
2023/04/10 04:12:35;;;;;;;6.30;4.73;;;;;;;;;;5058908;28;20206;-57
2023/04/10 04:15:02;;;;;;;3.77;3.27;;;;;;;;;;5070797;28;20743;-57
2023/04/10 04:17:29;;;;;;;5.20;3.77;;;;;;;;;;5065912;28;20219;-57
2023/04/10 04:19:56;;;;;;;4.07;3.67;;;;;;;;;;5054694;28;20217;-57
2023/04/10 04:22:25;;;;;;;4.50;3.53;;;;;;;;;;5058458;28;20230;-57
2023/04/10 04:24:52;;;;;;;7.20;3.43;;;;;;;;;;5068314;28;20221;-57
2023/04/10 04:27:20;;;;;;;4.47;3.57;;;;;;;;;;5063867;28;20935;-57
2023/04/10 04:29:47;;;;;;;3.83;2.90;;;;;;;;;;5053675;28;20227;-57
2023/04/10 04:32:14;;;;;;;6.50;3.50;;;;;;;;;;5056401;28;20220;-57
2023/04/10 04:34:41;;;;;;;3.43;3.17;;;;;;;;;;5055115;28;20255;-57
2023/04/10 04:37:08;;;;;;;3.77;3.37;;;;;;;;;;5070526;28;20252;-57
2023/04/10 04:39:37;;;;;;;3.43;3.13;;;;;;;;;;5067991;28;20237;-57
2023/04/10 04:42:04;;;;;;;3.40;3.00;;;;;;;;;;5070131;28;20208;-57
2023/04/10 04:44:31;;;;;;;3.03;2.83;;;;;;;;;;5065553;28;20298;-57
2023/04/10 04:46:58;;;;;;;2.70;2.27;;;;;;;;;;5062440;28;20729;-57
2023/04/10 04:49:25;;;;;;;3.07;2.47;;;;;;;;;;5050849;28;20228;-57
2023/04/10 04:51:52;;;;;;;4.77;2.30;;;;;;;;;;5062766;28;20206;-57
2023/04/10 04:54:19;;;;;;;5.80;2.87;;;;;;;;;;5052354;28;20208;-57
2023/04/10 04:56:47;;;;;;;4.40;2.97;;;;;;;;;;5061424;28;20223;-57
2023/04/10 04:59:14;;;;;;;3.47;2.73;;;;;;;;;;5059142;28;20202;-57
2023/04/10 05:01:41;;;;;;;3.73;2.87;;;;;;;;;;5054720;28;20207;-57
2023/04/10 05:04:08;;;;;;;5.53;2.67;;;;;;;;;;5051624;28;20204;-57
2023/04/10 05:06:36;;;;;;;8.37;3.83;;;;;;;;;;5053851;28;20211;-57
2023/04/10 05:09:03;;;;;;;3.47;3.17;;;;;;;;;;5056209;28;20274;-57
2023/04/10 05:11:30;;;;;;;3.37;2.53;;;;;;;;;;5060764;28;20206;-57
2023/04/10 05:13:58;;;;;;;4.87;2.33;;;;;;;;;;5057390;28;20211;-57
2023/04/10 05:16:26;;;;;;;3.17;2.53;;;;;;;;;;5049880;28;20663;-57
2023/04/10 05:18:53;;;;;;;4.43;2.73;;;;;;;;;;5049737;28;20203;-57
2023/04/10 05:21:20;;;;;;;2.17;1.97;;;;;;;;;;5049191;28;20199;-57
2023/04/10 05:23:47;;;;;;;2.47;2.23;;;;;;;;;;5049273;28;20932;-57
2023/04/10 05:26:14;;;;;;;4.80;2.77;;;;;;;;;;5049731;28;20213;-57
2023/04/10 05:28:41;;;;;;;3.60;3.30;;;;;;;;;;5056294;28;20343;-57
2023/04/10 05:31:09;;;;;;;2.80;2.60;;;;;;;;;;5054093;28;20211;-57
2023/04/10 05:33:36;;;;;;;2.70;2.50;;;;;;;;;;5050348;28;20210;-57
2023/04/10 05:36:03;;;;;;;3.47;2.80;;;;;;;;;;5049382;28;20219;-57
2023/04/10 05:38:30;;;;;;;5.33;3.17;;;;;;;;;;5056934;28;20227;-57
2023/04/10 05:40:57;;;;;;;4.30;2.50;;;;;;;;;;5060152;28;20583;-57
2023/04/10 05:43:24;;;;;;;8.63;3.43;;;;;;;;;;5058871;28;20290;-57
2023/04/10 05:45:51;;;;;;;4.50;3.73;;;;;;;;;;5056559;28;20198;-57
2023/04/10 05:48:20;;;;;;;2.93;2.63;;;;;;;;;;5065504;28;20214;-57
2023/04/10 05:50:47;;;;;;;4.20;3.40;;;;;;;;;;5064310;28;20229;-57
2023/04/10 05:53:15;;;;;;;3.77;3.03;;;;;;;;;;5054366;28;20644;-58
2023/04/10 05:55:42;;;;;;;3.30;2.80;;;;;;;;;;5059805;28;20210;-57
2023/04/10 05:58:09;;;;;;;3.03;2.73;;;;;;;;;;5056749;28;20210;-57
2023/04/10 06:00:36;;;;;;;3.40;3.03;;;;;;;;;;5066061;28;20244;-57
2023/04/10 06:03:03;;;;;;;4.60;3.37;;;;;;;;;;5048976;28;20208;-57
2023/04/10 06:05:32;;;;;;;4.73;2.80;;;;;;;;;;5049646;28;20218;-56
2023/04/10 06:07:59;;;;;;;4.40;4.00;;;;;;;;;;5048457;28;20216;-56
2023/04/10 06:10:28;;;;;;;3.17;2.87;;;;;;;;;;5067030;28;20227;-56
2023/04/10 06:12:55;;;;;;;3.17;2.90;;;;;;;;;;5068568;28;20222;-56
2023/04/10 06:15:22;;;;;;;6.33;3.70;;;;;;;;;;5063261;28;20204;-57
2023/04/10 06:17:49;;;;;;;5.83;3.67;;;;;;;;;;5058959;28;20935;-56
2023/04/10 06:20:16;;;;;;;4.40;3.70;;;;;;;;;;5049312;28;20204;-56
2023/04/10 06:22:45;;;;;;;4.70;3.67;;;;;;;;;;5058643;28;20285;-55
2023/04/10 06:25:13;;;;;;;3.13;2.53;;;;;;;;;;5051952;28;20621;-57
2023/04/10 06:27:40;;;;;;;5.03;3.47;;;;;;;;;;5048468;28;20245;-57
2023/04/10 06:30:07;;;;;;;5.80;3.70;;;;;;;;;;5057913;28;20227;-58
2023/04/10 06:32:35;;;;;;;6.80;4.67;;;;;;;;;;5055423;28;20204;-57
2023/04/10 06:35:02;;;;;;;4.97;3.77;;;;;;;;;;5048430;28;20204;-56
2023/04/10 06:37:30;;;;;;;7.63;4.33;;;;;;;;;;5067174;28;20252;-56
2023/04/10 06:40:06;;;;;;;7.70;5.20;;;;;;;;;;5063832;28;20288;-57
2023/04/10 06:42:33;;;;;;;6.30;4.53;;;;;;;;;;5055489;28;20431;-57
2023/04/10 06:45:00;;;;;;;4.47;3.97;;;;;;;;;;5056916;28;20256;-57
2023/04/10 06:47:27;;;;;;;6.53;3.93;;;;;;;;;;5068070;28;20251;-57
2023/04/10 06:49:55;;;;;;;4.13;3.70;;;;;;;;;;5065691;28;20219;-57
2023/04/10 06:52:22;;;;;;;4.47;3.60;;;;;;;;;;5048086;28;20212;-56
2023/04/10 06:54:49;;;;;;;3.93;3.33;;;;;;;;;;5054261;28;20205;-56
2023/04/10 06:57:17;;;;;;;4.60;3.33;;;;;;;;;;5068021;28;20302;-57
2023/04/10 06:59:44;;;;;;;4.47;3.43;;;;;;;;;;5066812;28;20645;-57
2023/04/10 07:02:12;;;;;;;4.53;3.27;;;;;;;;;;5050258;28;20211;-57
2023/04/10 07:04:39;;;;;;;4.83;3.40;;;;;;;;;;5061481;28;20206;-57
2023/04/10 07:07:08;;;;;;;3.10;2.80;;;;;;;;;;5067986;28;20221;-56
2023/04/10 07:09:35;;;;;;;4.20;3.23;;;;;;;;;;5052623;28;20227;-56
2023/04/10 07:12:02;;;;;;;3.27;2.93;;;;;;;;;;5052833;28;20211;-56
2023/04/10 07:14:31;;;;;;;3.33;2.50;;;;;;;;;;5055677;28;20318;-61
2023/04/10 07:16:58;;;;;;;3.20;2.90;;;;;;;;;;5050683;28;20215;-57
2023/04/10 07:19:25;;;;;;;3.17;2.53;;;;;;;;;;5047475;28;20208;-57
2023/04/10 07:21:53;;;;;;;2.53;2.40;;;;;;;;;;5047610;28;20628;-57
2023/04/10 07:24:20;;;;;;;2.30;2.10;;;;;;;;;;5064622;28;20889;-57
2023/04/10 07:26:47;;;;;;;3.07;2.87;;;;;;;;;;5064869;28;20687;-57
2023/04/10 07:29:14;;;;;;;3.10;2.90;;;;;;;;;;5066201;28;20622;-58
2023/04/10 07:31:43;;;;;;;4.17;3.10;;;;;;;;;;5057751;28;20332;-56
2023/04/10 07:34:10;;;;;;;2.40;2.20;;;;;;;;;;5052929;28;20215;-56
2023/04/10 07:36:37;;;;;;;3.00;2.70;;;;;;;;;;5065550;28;20294;-55
2023/04/10 07:39:04;;;;;;;3.43;3.13;;;;;;;;;;5058379;28;20870;-56
2023/04/10 07:41:32;;;;;;;3.07;2.77;;;;;;;;;;5058843;28;20203;-55
2023/04/10 07:43:59;;;;;;;3.37;2.33;;;;;;;;;;5049971;28;20204;-55
2023/04/10 07:46:26;;;;;;;2.73;2.53;;;;;;;;;;5060747;28;20210;-55
2023/04/10 07:48:55;;;;;;;3.30;3.10;;;;;;;;;;5063149;28;20287;-55
2023/04/10 07:51:22;;;;;;;4.37;3.03;;;;;;;;;;5054815;28;20764;-55
2023/04/10 07:53:49;;;;;;;2.70;2.43;;;;;;;;;;5065966;28;20214;-55
2023/04/10 07:56:16;;;;;;;2.67;2.47;;;;;;;;;;5070989;28;20211;-55
2023/04/10 07:58:44;;;;;;;2.50;2.30;;;;;;;;;;5069120;28;20294;-55
2023/04/10 08:01:11;;;;;;;3.77;2.23;;;;;;;;;;5056057;28;20230;-55
2023/04/10 08:03:39;;;;;;;2.93;2.67;;;;;;;;;;5068338;28;20203;-55
2023/04/10 08:06:09;;;;;;;2.33;2.23;;;;;;;;;;5059757;28;20658;-55
2023/04/10 08:08:36;;;;;;;2.30;2.10;;;;;;;;;;5051932;28;20208;-55
2023/04/10 08:11:03;;;;;;;2.70;2.50;;;;;;;;;;5051660;28;20223;-55
2023/04/10 08:13:30;;;;;;;3.00;2.67;;;;;;;;;;5050257;28;20211;-55
2023/04/10 08:15:57;;;;;;;2.07;1.90;;;;;;;;;;5060961;28;20260;-55
2023/04/10 08:18:24;;;;;;;2.33;2.13;;;;;;;;;;5070365;28;20261;-55
2023/04/10 08:20:51;;;;;;;2.50;2.30;;;;;;;;;;5068832;28;20249;-55
2023/04/10 08:23:19;;;;;;;2.23;2.13;;;;;;;;;;5062448;28;20223;-56
2023/04/10 08:25:46;;;;;;;2.83;2.20;;;;;;;;;;5050870;28;20218;-56
2023/04/10 08:28:14;;;;;;;2.77;2.57;;;;;;;;;;5061353;28;20583;-58
2023/04/10 08:30:41;;;;;;;2.60;2.40;;;;;;;;;;5067750;28;20300;-60
2023/04/10 08:33:08;;;;;;;2.50;2.30;;;;;;;;;;5065524;28;20214;-56
2023/04/10 08:35:35;;;;;;;2.07;1.97;;;;;;;;;;5067246;28;20207;-57
2023/04/10 08:38:02;;;;;;;2.75;2.55;;;;;;;;;;5062493;28;20732;-60
2023/04/10 08:40:30;;;;;;;3.67;3.00;;;;;;;;;;5057520;28;20659;-57
2023/04/10 08:43:09;;;;;;;4.68;2.65;;;;;;;;;;5064394;28;20207;-63
2023/04/10 08:45:36;;;;;;;2.55;2.38;;;;;;;;;;5056597;28;20210;-57
2023/04/10 08:48:06;;;;;;;3.10;2.90;;;;;;;;;;5057484;28;20208;-58
2023/04/10 08:50:35;;;;;;;2.50;2.40;;;;;;;;;;5057925;28;20307;-58
2023/04/10 08:53:05;;;;;;;2.42;2.30;;;;;;;;;;5064025;28;20226;-57
2023/04/10 08:55:34;;;;;;;2.83;2.63;;;;;;;;;;5056633;28;20207;-58
2023/04/10 08:58:01;;;;;;;2.72;2.50;;;;;;;;;;5055903;28;20226;-60
2023/04/10 09:00:30;;;;;;;3.17;2.88;;;;;;;;;;5052406;28;20210;-59
2023/04/10 09:02:58;;;;;;;3.05;2.75;;;;;;;;;;5063086;28;20577;-57
2023/04/10 09:05:27;;;;;;;3.25;2.95;;;;;;;;;;5048925;28;20214;-57
2023/04/10 09:07:54;;;;;;;2.72;2.53;;;;;;;;;;5053886;28;20290;-57
2023/04/10 09:10:21;;;;;;;2.78;2.38;;;;;;;;;;5057659;28;20940;-57
2023/04/10 09:12:50;;;;;;;2.80;2.60;;;;;;;;;;5059021;28;20234;-57
2023/04/10 09:15:17;;;;;;;3.10;2.80;;;;;;;;;;5056802;28;20247;-57
2023/04/10 09:17:55;;;;;;;3.80;2.53;;;;;;;;;;5053873;28;20203;-56
2023/04/10 09:20:23;;;;;;;2.78;2.58;;;;;;;;;;5057319;28;20302;-57
2023/04/10 09:22:50;;;;;;;2.72;2.53;;;;;;;;;;5057270;28;20292;-57
2023/04/10 09:25:30;;;;;;;2.63;2.42;;;;;;;;;;5060508;28;20207;-58
2023/04/10 09:28:02;;;;;;;2.78;2.58;;;;;;;;;;5068491;28;20213;-57
2023/04/10 09:30:36;;;;;;;3.08;2.70;;;;;;;;;;5049361;28;20231;-57
2023/04/10 09:33:03;;;;;;;2.47;2.28;;;;;;;;;;5048711;28;20215;-56
2023/04/10 09:35:38;;;;;;;2.45;2.25;;;;;;;;;;5049229;28;20219;-57
2023/04/10 09:38:15;;;;;;;2.30;2.10;;;;;;;;;;5048830;28;20203;-57
2023/04/10 09:40:42;;;;;;;2.20;2.10;;;;;;;;;;5048243;28;20207;-57
2023/04/10 09:43:20;;;;;;;2.92;2.22;;;;;;;;;;5048524;28;20200;-58
2023/04/10 09:45:48;;;;;;;6.78;5.03;;;;;;;;;;5047608;28;20455;-58
2023/04/10 09:48:15;;;;;;;8.32;3.60;;;;;;;;;;5065488;28;20332;-58
2023/04/10 09:50:45;;;;;;;2.40;2.22;;;;;;;;;;5064921;28;20231;-60
2023/04/10 09:53:13;;;;;;;3.55;3.17;;;;;;;;;;5049888;28;20622;-58
2023/04/10 09:55:41;;;;;;;2.78;2.58;;;;;;;;;;5067911;28;20225;-59
2023/04/10 09:58:08;;;;;;;4.07;3.47;;;;;;;;;;5058032;28;20198;-59
2023/04/10 10:00:43;;;;;;;1.95;1.85;;;;;;;;;;5066495;28;20227;-59
2023/04/10 10:03:11;;;;;;;1.73;1.73;;;;;;;;;;5059492;28;20994;-59
2023/04/10 10:05:40;;;;;;;1.60;1.60;;;;;;;;;;5047064;28;20239;-59
2023/04/10 10:08:07;;;;;;;1.73;1.63;;;;;;;;;;5045762;28;20211;-59
2023/04/10 10:10:34;;;;;;;1.45;1.42;;;;;;;;;;5056755;28;20248;-59
2023/04/10 10:13:03;;;;;;;1.40;1.40;;;;;;;;;;5063005;28;20232;-59
2023/04/10 10:15:35;;;;;;;2.10;1.70;;;;;;;;;;5058104;28;20231;-59
2023/04/10 10:18:08;;;;;;;1.98;1.88;;;;;;;;;;5063043;28;20729;-59
2023/04/10 10:20:38;;;;;;;2.10;2.00;;;;;;;;;;5058564;28;20200;-59
2023/04/10 10:23:07;;;;;;;2.25;2.15;;;;;;;;;;5067079;28;20237;-59
2023/04/10 10:25:35;;;;;;;1.90;1.88;;;;;;;;;;5060609;28;20206;-59
2023/04/10 10:28:04;;;;;;;1.45;1.33;;;;;;;;;;5067738;28;20214;-63
2023/04/10 10:30:32;;;;;;;1.33;1.33;;;;;;;;;;5051346;28;20216;-59
2023/04/10 10:33:00;;;;;;;1.70;1.70;;;;;;;;;;5058755;28;20237;-60
2023/04/10 10:35:28;;;;;;;1.77;1.67;;;;;;;;;;5050599;28;20214;-59
2023/04/10 10:37:55;;;;;;;1.73;1.63;;;;;;;;;;5046268;28;20204;-59
2023/04/10 10:40:25;;;;;;;1.55;1.45;;;;;;;;;;5048103;28;20212;-59
2023/04/10 10:42:56;;;;;;;1.55;1.45;;;;;;;;;;5050160;28;20210;-59
2023/04/10 10:45:26;;;;;;;1.30;1.20;;;;;;;;;;5060291;28;20207;-59
2023/04/10 10:47:54;;;;;;;2.60;1.60;;;;;;;;;;5057516;28;20210;-59
2023/04/10 10:50:22;;;;;;;1.63;1.63;;;;;;;;;;5047691;28;20217;-58
2023/04/10 10:52:51;;;;;;;1.30;1.30;;;;;;;;;;5059922;28;20237;-59
2023/04/10 10:55:30;;;;;;;1.05;1.05;;;;;;;;;;5049768;28;20204;-59
2023/04/10 10:57:58;;;;;;;0.80;0.80;;;;;;;;;;5047307;28;20693;-59
2023/04/10 11:00:25;;;;;;;1.10;1.10;;;;;;;;;;5046606;28;20674;-59
2023/04/10 11:03:07;;;;;;;1.15;1.15;;;;;;;;;;5063119;28;20209;-59
2023/04/10 11:05:49;;;;;;;1.33;1.15;;;;;;;;;;5066002;28;20222;-59
2023/04/10 11:08:17;;;;;;;1.15;1.15;;;;;;;;;;5046315;28;20290;-58
2023/04/10 11:11:00;;;;;;;0.77;0.77;;;;;;;;;;5047033;28;20215;-59
2023/04/10 11:13:27;;;;;;;1.60;1.50;;;;;;;;;;5063453;28;20314;-59
2023/04/10 11:15:55;;;;;;;0.95;0.95;;;;;;;;;;5056483;28;20692;-59
2023/04/10 11:18:45;;;;;;;0.90;0.90;;;;;;;;;;5065553;28;20657;-59
2023/04/10 11:21:13;;;;;;;0.95;0.85;;;;;;;;;;5058244;28;20199;-59
2023/04/10 11:24:02;;;;;;;1.13;1.13;;;;;;;;;;5059325;28;20284;-59
2023/04/10 11:26:40;;;;;;;0.82;0.82;;;;;;;;;;5064540;28;20230;-58
2023/04/10 11:29:07;;;;;;;1.30;1.30;;;;;;;;;;5047749;28;20222;-60
2023/04/10 11:31:34;;;;;;;1.00;1.00;;;;;;;;;;5052497;28;20281;-59
2023/04/10 11:34:02;;;;;;;1.00;1.00;;;;;;;;;;5070858;28;20658;-60
2023/04/10 11:36:30;;;;;;;1.30;1.30;;;;;;;;;;5070944;28;20214;-59
2023/04/10 11:38:59;;;;;;;1.10;1.10;;;;;;;;;;5060353;28;20239;-59
2023/04/10 11:41:27;;;;;;;0.98;0.98;;;;;;;;;;5050743;28;20588;-59
2023/04/10 11:43:54;;;;;;;1.08;1.08;;;;;;;;;;5061023;28;20227;-59
2023/04/10 11:46:21;;;;;;;1.23;1.15;;;;;;;;;;5070508;28;20225;-60
2023/04/10 11:48:48;;;;;;;1.05;1.05;;;;;;;;;;5066944;28;20226;-60
2023/04/10 11:51:15;;;;;;;1.30;1.20;;;;;;;;;;5070310;28;20288;-60
2023/04/10 11:53:42;;;;;;;1.10;1.10;;;;;;;;;;5070104;28;20211;-59
2023/04/10 11:56:21;;;;;;;0.93;0.93;;;;;;;;;;5070209;28;20858;-59
2023/04/10 11:58:52;;;;;;;1.25;1.25;;;;;;;;;;5068342;28;20203;-60
2023/04/10 12:01:21;;;;;;;1.05;1.05;;;;;;;;;;5066734;28;20203;-59
2023/04/10 12:03:48;;;;;;;0.80;0.80;;;;;;;;;;5053224;28;20206;-60
2023/04/10 12:06:19;;;;;;;1.15;1.15;;;;;;;;;;5050203;28;20252;-59
2023/04/10 12:08:48;;;;;;;1.00;0.95;;;;;;;;;;5050950;28;20238;-60
2023/04/10 12:11:19;;;;;;;0.98;0.95;;;;;;;;;;5050171;28;20228;-60
2023/04/10 12:13:47;;;;;;;1.40;1.40;;;;;;;;;;5050157;28;20670;-59
2023/04/10 12:16:15;;;;;;;1.10;1.10;;;;;;;;;;5051029;28;20777;-63
2023/04/10 12:18:43;;;;;;;1.45;1.38;;;;;;;;;;5057341;28;20771;-59
2023/04/10 12:21:10;;;;;;;0.90;0.90;;;;;;;;;;5051174;28;20247;-59
2023/04/10 12:23:38;;;;;;;1.30;1.30;;;;;;;;;;5055275;28;20234;-60
2023/04/10 12:26:13;;;;;;;1.75;1.65;;;;;;;;;;5065461;28;20321;-60
2023/04/10 12:28:41;;;;;;;1.23;1.20;;;;;;;;;;5059262;28;20203;-60
2023/04/10 12:31:10;;;;;;;1.35;1.35;;;;;;;;;;5060588;28;20211;-59
2023/04/10 12:33:37;;;;;;;1.70;1.60;;;;;;;;;;5049596;28;20211;-60
2023/04/10 12:36:04;;;;;;;1.48;1.40;;;;;;;;;;5065198;28;20260;-60
2023/04/10 12:38:38;;;;;;;1.40;1.40;;;;;;;;;;5069430;28;20243;-60
2023/04/10 12:41:06;;;;;;;1.58;1.58;;;;;;;;;;5063344;28;20238;-58
2023/04/10 12:43:33;;;;;;;1.30;1.30;;;;;;;;;;5049616;28;20239;-58
2023/04/10 12:46:01;;;;;;;1.35;1.25;;;;;;;;;;5049323;28;20221;-58
2023/04/10 12:48:29;;;;;;;1.05;1.05;;;;;;;;;;5059974;28;20303;-59
2023/04/10 12:50:56;;;;;;;1.63;1.63;;;;;;;;;;5052916;28;20211;-58
2023/04/10 12:53:24;;;;;;;1.52;1.42;;;;;;;;;;5057286;28;20227;-61
2023/04/10 12:55:58;;;;;;;1.60;1.60;;;;;;;;;;5048758;28;20223;-59
2023/04/10 12:58:26;;;;;;;1.63;1.52;;;;;;;;;;5047017;28;20299;-60
2023/04/10 13:00:54;;;;;;;1.35;1.35;;;;;;;;;;5066675;28;20204;-59
2023/04/10 13:03:21;;;;;;;2.45;1.35;;;;;;;;;;5068046;28;20290;-58
2023/04/10 13:05:50;;;;;;;1.52;1.52;;;;;;;;;;5064051;28;20253;-60
2023/04/10 13:08:17;;;;;;;1.45;1.42;;;;;;;;;;5049612;28;20923;-59
2023/04/10 13:10:44;;;;;;;1.55;1.45;;;;;;;;;;5056677;28;20196;-58
2023/04/10 13:13:12;;;;;;;1.50;1.42;;;;;;;;;;5048923;28;20348;-58
2023/04/10 13:15:39;;;;;;;1.80;1.80;;;;;;;;;;5049102;28;20224;-57
2023/04/10 13:18:07;;;;;;;1.13;1.13;;;;;;;;;;5054879;28;20302;-58
2023/04/10 13:20:35;;;;;;;1.58;1.58;;;;;;;;;;5060633;28;20252;-58
2023/04/10 13:23:03;;;;;;;1.33;1.33;;;;;;;;;;5064126;28;20779;-58
2023/04/10 13:25:32;;;;;;;1.77;1.40;;;;;;;;;;5048889;28;20207;-59
2023/04/10 13:27:59;;;;;;;1.98;1.52;;;;;;;;;;5049494;28;20211;-58
2023/04/10 13:30:26;;;;;;;1.38;1.35;;;;;;;;;;5048574;28;20287;-58
2023/04/10 13:32:53;;;;;;;1.27;1.25;;;;;;;;;;5048601;28;20308;-58
2023/04/10 13:35:20;;;;;;;1.40;1.40;;;;;;;;;;5062856;28;20268;-58
2023/04/10 13:37:51;;;;;;;1.30;1.20;;;;;;;;;;5062573;28;20204;-60
2023/04/10 13:40:20;;;;;;;1.33;1.30;;;;;;;;;;5048274;28;20216;-59
2023/04/10 13:42:47;;;;;;;1.42;1.42;;;;;;;;;;5052635;28;20218;-57
2023/04/10 13:45:14;;;;;;;4.95;1.58;;;;;;;;;;5068063;28;20209;-60
2023/04/10 13:47:42;;;;;;;1.50;1.40;;;;;;;;;;5062805;28;20219;-58
2023/04/10 13:50:10;;;;;;;0.93;0.93;;;;;;;;;;5054245;28;20654;-58
2023/04/10 13:52:37;;;;;;;1.27;1.25;;;;;;;;;;5061229;28;20601;-57
2023/04/10 13:55:04;;;;;;;1.30;1.30;;;;;;;;;;5067716;28;20665;-57
2023/04/10 13:57:33;;;;;;;1.33;1.33;;;;;;;;;;5066643;28;20211;-57
2023/04/10 14:00:00;;;;;;;1.20;1.20;;;;;;;;;;5066189;28;20264;-58
2023/04/10 14:02:27;;;;;;;3.35;1.30;;;;;;;;;;5064599;28;20209;-57
2023/04/10 14:04:54;;;;;;;1.27;1.17;;;;;;;;;;5065947;28;20218;-58
2023/04/10 14:07:21;;;;;;;1.13;1.13;;;;;;;;;;5065511;28;20280;-58
2023/04/10 14:09:48;;;;;;;1.17;1.17;;;;;;;;;;5068004;28;20211;-58
2023/04/10 14:12:16;;;;;;;1.10;1.10;;;;;;;;;;5047366;28;20322;-57
2023/04/10 14:14:44;;;;;;;1.25;1.25;;;;;;;;;;5047369;28;20238;-58
2023/04/10 14:17:11;;;;;;;1.30;1.30;;;;;;;;;;5054588;28;20252;-58
2023/04/10 14:19:39;;;;;;;1.13;1.13;;;;;;;;;;5064340;28;20211;-59
2023/04/10 14:22:06;;;;;;;1.15;1.10;;;;;;;;;;5067174;28;20267;-59
2023/04/10 14:24:33;;;;;;;1.17;1.17;;;;;;;;;;5065783;28;20207;-59
2023/04/10 14:27:00;;;;;;;1.00;1.00;;;;;;;;;;5059072;28;20210;-59
2023/04/10 14:29:28;;;;;;;1.10;1.10;;;;;;;;;;5066619;28;20203;-60
2023/04/10 14:31:58;;;;;;;1.20;1.20;;;;;;;;;;5066096;28;20811;-59
2023/04/10 14:34:25;;;;;;;1.10;1.10;;;;;;;;;;5058951;28;20269;-59
2023/04/10 14:36:54;;;;;;;1.08;1.08;;;;;;;;;;5047069;28;20211;-59
2023/04/10 14:39:22;;;;;;;1.05;1.05;;;;;;;;;;5047125;28;20246;-59
2023/04/10 14:41:49;;;;;;;1.30;1.30;;;;;;;;;;5047142;28;20766;-59
2023/04/10 14:44:16;;;;;;;1.10;1.10;;;;;;;;;;5046963;28;20580;-60
2023/04/10 14:46:43;;;;;;;1.13;1.10;;;;;;;;;;5051886;28;20252;-59
2023/04/10 14:49:11;;;;;;;1.10;1.10;;;;;;;;;;5061034;28;20205;-59